Brooklyn — WDH7110 — position and weather

sailwx.info

Track history (hours):
 
Tides and Currents Weather Stations Pressure Air Temp Water Temp Dewpoint Dewpoint Depression Visibility Wind Speed Wind Dir Waves Ship Positions

Brooklyn

Owner: Apex Towing Company, Port Allen, LA. More information available from US FCC via Universal Licensing System and Coast Guard Vessel Documentation Center.

Last reported at 2018-Feb-14 04:23 UTC. Time now 2018-Feb-20 19:33 UTC.
Position N 36°52' W 075°54'.

Length 30 m; draft 5 m.

Type: Towing. MMSI: 367644910.

Date/timePositionNaut miles runAvg speedWind from/ knotsBaromVisibWave heightAir tempDewpointWater temp
2018-Feb-14 04:23N 36°52' W 075°54'5 7.3
2018-Feb-14 03:41N 36°56' W 075°58'3 7.2
2018-Feb-14 03:12N 36°57' W 076°02'2 5.4
2018-Feb-14 02:50N 36°58' W 076°05'4 5.6
2018-Feb-14 02:04N 36°59' W 076°10'1 5.8
2018-Feb-14 01:53N 36°60' W 076°11'2 5.7
2018-Feb-14 01:28N 37°00' W 076°14'3 5.4
2018-Feb-14 00:59N 37°00' W 076°17'3 5.2
2018-Feb-14 00:29N 36°59' W 076°20'2 3.6
2018-Feb-13 23:59N 36°58' W 076°22'0 0.1
2018-Feb-13 23:28N 36°58' W 076°22'0 0.1
2018-Feb-13 22:58N 36°58' W 076°22'0 0.0
2018-Feb-13 22:28N 36°58' W 076°22'0 0.0
2018-Feb-13 21:57N 36°58' W 076°22'0 0.1
2018-Feb-13 21:26N 36°58' W 076°22'0 0.2
2018-Feb-13 21:00N 36°58' W 076°22'0 0.1
2018-Feb-13 20:29N 36°58' W 076°22'0 0.0
2018-Feb-13 19:56N 36°58' W 076°22'0 0.0
2018-Feb-13 19:26N 36°58' W 076°22'0 0.0
2018-Feb-13 19:00N 36°58' W 076°22'0 0.0
2018-Feb-13 18:30N 36°58' W 076°22'0 0.0
2018-Feb-13 18:00N 36°58' W 076°22'0 0.0
2018-Feb-13 17:29N 36°58' W 076°22'0 0.1
2018-Feb-13 16:59N 36°58' W 076°22'0 0.2
2018-Feb-13 16:28N 36°58' W 076°22'0 0.1
2018-Feb-13 15:50N 36°58' W 076°22'0 0.0
2018-Feb-13 15:30N 36°58' W 076°22'0 0.0
2018-Feb-13 14:59N 36°58' W 076°22'0 0.0
2018-Feb-13 14:29N 36°58' W 076°22'0 0.0
2018-Feb-13 13:58N 36°58' W 076°22'0 0.0
2018-Feb-13 13:28N 36°58' W 076°22'0 0.0
2018-Feb-13 12:58N 36°58' W 076°22'0 0.0
2018-Feb-13 12:22N 36°58' W 076°22'0 0.0
2018-Feb-13 11:56N 36°58' W 076°22'0 0.0
2018-Feb-13 11:26N 36°58' W 076°22'0 0.0
2018-Feb-13 11:00N 36°58' W 076°22'0 0.0
2018-Feb-13 10:30N 36°58' W 076°22'0 0.0
2018-Feb-13 10:00N 36°58' W 076°22'0 0.0
2018-Feb-13 09:29N 36°58' W 076°22'0 0.0
2018-Feb-13 08:59N 36°58' W 076°22'0 0.1
2018-Feb-13 08:28N 36°58' W 076°22'0 0.2
2018-Feb-13 08:00N 36°58' W 076°22'0 0.1
2018-Feb-13 07:25N 36°58' W 076°22'0 0.1
2018-Feb-13 06:59N 36°58' W 076°22'0 0.0
2018-Feb-13 06:28N 36°58' W 076°22'0 0.0
2018-Feb-13 05:58N 36°58' W 076°22'0 0.0
2018-Feb-13 05:29N 36°58' W 076°22'0 0.0
2018-Feb-13 04:57N 36°58' W 076°22'0 0.0
2018-Feb-13 04:26N 36°58' W 076°22'2 4.3
2018-Feb-13 03:56N 36°57' W 076°24'1 2.0
2018-Feb-13 03:30N 36°58' W 076°25'0 0.0
2018-Feb-13 03:00N 36°58' W 076°25'0 0.0
2018-Feb-13 02:30N 36°58' W 076°25'0 0.0
2018-Feb-13 01:59N 36°58' W 076°25'0 0.0
2018-Feb-13 01:29N 36°58' W 076°25'0 0.0
2018-Feb-13 00:58N 36°58' W 076°25'0 0.0
2018-Feb-13 00:28N 36°58' W 076°25'0 0.0
2018-Feb-12 23:57N 36°58' W 076°25'0 0.0
2018-Feb-12 23:27N 36°58' W 076°25'1 1.6
2018-Feb-12 22:56N 36°57' W 076°24'2 4.3
2018-Feb-12 22:26N 36°58' W 076°22'0 0.1
2018-Feb-12 22:00N 36°58' W 076°22'1 2.6
2018-Feb-12 21:30N 36°59' W 076°20'2 4.8
2018-Feb-12 21:00N 36°60' W 076°18'3 5.9
2018-Feb-12 20:29N 37°00' W 076°14'3 5.9
2018-Feb-12 19:59N 36°59' W 076°11'3 5.2
2018-Feb-12 19:28N 36°59' W 076°08'2 4.3
2018-Feb-12 19:00N 36°58' W 076°05'2 3.9
2018-Feb-12 18:30N 36°57' W 076°03'2 3.9
2018-Feb-12 17:59N 36°57' W 076°00'2 3.8
2018-Feb-12 17:30N 36°56' W 075°58'2 4.0
2018-Feb-12 17:00N 36°56' W 075°56'2 4.1
2018-Feb-12 16:30N 36°55' W 075°53'5 4.4
2018-Feb-12 15:18N 36°52' W 075°48'185 5.6
2018-Feb-11 06:26N 39°37' W 074°03'53 6.8
2018-Feb-10 22:40N 40°30' W 073°57'1 6.0
2018-Feb-10 22:29N 40°31' W 073°58'2 5.0
2018-Feb-10 22:00N 40°32' W 074°01'2 4.6
2018-Feb-10 21:30N 40°34' W 074°02'1 1.6
2018-Feb-10 21:00N 40°35' W 074°02'0 0.2
2018-Feb-10 20:30N 40°35' W 074°02'2 3.4
2018-Feb-10 20:00N 40°37' W 074°03'3 6.3
2018-Feb-10 19:30N 40°39' W 074°05'3 5.9
2018-Feb-10 19:00N 40°39' W 074°09'3 5.3
2018-Feb-10 18:29N 40°37' W 074°12'4 5.7
2018-Feb-10 17:48N 40°33' W 074°14'2 1.2
2018-Feb-10 16:27N 40°32' W 074°15'0 0.0
2018-Feb-10 14:52N 40°32' W 074°15'0 0.1
2018-Feb-10 09:29N 40°33' W 074°15'4 8.4
2018-Feb-10 09:00N 40°36' W 074°12'3 6.8
2018-Feb-10 08:29N 40°39' W 074°09'1 2.4
2018-Feb-10 08:01N 40°39' W 074°07'3 6.2
2018-Feb-10 07:30N 40°42' W 074°07'1 1.6
2018-Feb-10 07:00N 40°43' W 074°07'0 0.0
2018-Feb-10 06:30N 40°43' W 074°07'0 0.0
2018-Feb-10 06:00N 40°43' W 074°07'0 0.0
2018-Feb-10 05:30N 40°43' W 074°07'0 0.0
2018-Feb-10 05:00N 40°43' W 074°07'0 0.0
2018-Feb-10 04:30N 40°43' W 074°07'0 0.0
2018-Feb-10 04:00N 40°43' W 074°07'0 0.0
2018-Feb-10 03:30N 40°43' W 074°07'0 0.0
2018-Feb-10 03:00N 40°43' W 074°07'0 0.0
2018-Feb-10 02:31N 40°43' W 074°07'3 5.3
2018-Feb-10 02:00N 40°40' W 074°08'2 3.0
2018-Feb-10 01:30N 40°39' W 074°09'4 8.0
2018-Feb-10 00:59N 40°35' W 074°12'3 2.6
2018-Feb-09 23:39N 40°32' W 074°15'1 4.3
2018-Feb-09 23:26N 40°33' W 074°15'3 6.9
2018-Feb-09 23:00N 40°36' W 074°12'2 7.6
2018-Feb-09 22:46N 40°37' W 074°12'8 0.8
2018-Feb-09 12:30N 40°40' W 074°02'0 0.0
2018-Feb-09 07:30N 40°40' W 074°02'0 0.0
2018-Feb-09 06:30N 40°40' W 074°02'0 0.0
2018-Feb-09 05:30N 40°40' W 074°02'0 0.1
2018-Feb-09 05:00N 40°40' W 074°02'0 0.1
2018-Feb-09 04:30N 40°40' W 074°02'  
2018-Feb-06 18:53N 40°58' W 073°54'4 9.3
2018-Feb-06 18:29N 40°55' W 073°55'5 9.3
2018-Feb-06 18:00N 40°51' W 073°57'5 9.7
2018-Feb-06 17:30N 40°46' W 074°00'5 9.4
2018-Feb-06 17:00N 40°42' W 074°02'4 8.8
2018-Feb-06 16:30N 40°37' W 074°03'2 4.7
2018-Feb-06 16:00N 40°35' W 074°02'2 3.2
2018-Feb-06 15:30N 40°34' W 074°02'8 6.2
2018-Feb-06 14:18N 40°28' W 073°55'2 6.4
2018-Feb-06 13:58N 40°26' W 073°54'3 5.9
2018-Feb-06 13:30N 40°24' W 073°54'5 7.3
2018-Feb-06 12:47N 40°18' W 073°54'2 7.3
2018-Feb-06 12:29N 40°16' W 073°54'6 7.3
2018-Feb-06 11:41N 40°10' W 073°55'2 7.3
2018-Feb-06 11:28N 40°09' W 073°55'6 7.3
2018-Feb-06 10:35N 40°02' W 073°56'1 7.2
2018-Feb-06 10:30N 40°02' W 073°56'5 7.3
2018-Feb-06 09:47N 39°57' W 073°57'6 7.3
2018-Feb-06 09:00N 39°51' W 073°58'4 7.3
2018-Feb-06 08:29N 39°47' W 073°58'5 7.2
2018-Feb-06 07:50N 39°43' W 074°00'3 7.3
2018-Feb-06 07:27N 39°40' W 074°01'3 7.3
2018-Feb-06 07:00N 39°37' W 074°03'4 7.4
2018-Feb-06 06:25N 39°33' W 074°06'59 5.5
2018-Feb-05 19:46N 39°02' W 075°09'2 7.5
2018-Feb-05 19:28N 39°04' W 075°10'4 7.6
2018-Feb-05 19:00N 39°07' W 075°13'6 6.6
2018-Feb-05 18:00N 39°12' W 075°17'6 5.7
2018-Feb-05 17:00N 39°17' W 075°21'3 3.5
2018-Feb-05 16:00N 39°19' W 075°25'20 5.8
2018-Feb-05 12:30N 39°32' W 075°45'16 6.3
2018-Feb-05 09:59N 39°24' W 076°02'3 6.3
2018-Feb-05 09:30N 39°23' W 076°06'3 6.3
2018-Feb-05 09:00N 39°21' W 076°09'6 6.2
2018-Feb-05 08:06N 39°17' W 076°14'1 6.7
2018-Feb-05 07:54N 39°16' W 076°14'8 6.7
2018-Feb-05 06:42N 39°09' W 076°20'1 6.4
2018-Feb-05 06:30N 39°09' W 076°21'8 7.8
2018-Feb-05 05:29N 39°12' W 076°31'4 7.9
2018-Feb-05 05:00N 39°15' W 076°34'1 2.5
2018-Feb-05 04:28N 39°16' W 076°34'0 0.0
2018-Feb-05 03:58N 39°16' W 076°34'0 0.0
2018-Feb-05 03:28N 39°16' W 076°34'0 0.0
2018-Feb-05 02:58N 39°16' W 076°34'0 0.0
2018-Feb-05 02:28N 39°16' W 076°34'0 0.0
2018-Feb-05 01:58N 39°16' W 076°34'0 0.0
2018-Feb-05 01:28N 39°16' W 076°34'0 0.0
2018-Feb-05 00:58N 39°16' W 076°34'0 0.0
2018-Feb-05 00:28N 39°16' W 076°34'0 0.0
2018-Feb-04 23:58N 39°16' W 076°34'0 0.0
2018-Feb-04 23:28N 39°16' W 076°34'0 0.0
2018-Feb-04 22:58N 39°16' W 076°34'0 0.0
2018-Feb-04 22:28N 39°16' W 076°34'0 0.0
2018-Feb-04 21:58N 39°16' W 076°34'0 0.0
2018-Feb-04 21:28N 39°16' W 076°34'0 0.0
2018-Feb-04 20:58N 39°16' W 076°34'1 1.1
2018-Feb-04 19:59N 39°17' W 076°36'0 0.0
2018-Feb-04 19:29N 39°17' W 076°36'0 0.0
2018-Feb-04 18:56N 39°17' W 076°36'1 2.3
2018-Feb-04 18:29N 39°16' W 076°34'1 1.1
2018-Feb-04 17:59N 39°16' W 076°35'0 0.0
2018-Feb-04 17:29N 39°16' W 076°35'0 0.0
2018-Feb-04 15:29N 39°16' W 076°35'0 0.0
2018-Feb-04 14:53N 39°16' W 076°35'0 0.0
2018-Feb-04 14:29N 39°16' W 076°35'0 0.0
2018-Feb-04 13:56N 39°16' W 076°35'1 1.4
2018-Feb-04 13:31N 39°16' W 076°34'0 0.0
2018-Feb-04 12:58N 39°16' W 076°34'0 0.0
2018-Feb-04 12:28N 39°16' W 076°34'0 0.0
2018-Feb-04 11:58N 39°16' W 076°34'0 0.0
2018-Feb-04 11:28N 39°16' W 076°34'0 0.0
2018-Feb-04 09:58N 39°16' W 076°34'0 0.0
2018-Feb-04 08:58N 39°16' W 076°34'0 0.0
2018-Feb-04 08:28N 39°16' W 076°34'0 0.0
2018-Feb-04 08:01N 39°16' W 076°34'0 0.0
2018-Feb-04 07:31N 39°16' W 076°34'0 0.0
2018-Feb-04 06:58N 39°16' W 076°34'0 0.0
2018-Feb-04 06:28N 39°16' W 076°34'0 0.0
2018-Feb-04 06:01N 39°16' W 076°34'0 0.0
2018-Feb-04 05:31N 39°16' W 076°34'0 0.0
2018-Feb-04 05:01N 39°16' W 076°34'0 0.0
2018-Feb-04 04:31N 39°16' W 076°34'  
Track history (hours):
 
Tides and Currents Weather Stations Pressure Air Temp Water Temp Dewpoint Dewpoint Depression Visibility Wind Speed Wind Dir Waves Ship Positions

Brooklyn

Owner: Apex Towing Company, Port Allen, LA. More information available from US FCC via Universal Licensing System and Coast Guard Vessel Documentation Center.

Last reported at 2018-Feb-14 04:23 UTC. Time now 2018-Feb-20 19:33 UTC.
Position N 36°52' W 075°54'.

Length 30 m; draft 5 m.

Type: Towing. MMSI: 367644910.

Date/timePositionNaut miles runAvg speedWind from/ knotsBaromVisibWave heightAir tempDewpointWater temp
2018-Feb-14 04:23N 36°52' W 075°54'5 7.3
2018-Feb-14 03:41N 36°56' W 075°58'3 7.2
2018-Feb-14 03:12N 36°57' W 076°02'2 5.4
2018-Feb-14 02:50N 36°58' W 076°05'4 5.6
2018-Feb-14 02:04N 36°59' W 076°10'1 5.8
2018-Feb-14 01:53N 36°60' W 076°11'2 5.7
2018-Feb-14 01:28N 37°00' W 076°14'3 5.4
2018-Feb-14 00:59N 37°00' W 076°17'3 5.2
2018-Feb-14 00:29N 36°59' W 076°20'2 3.6
2018-Feb-13 23:59N 36°58' W 076°22'0 0.1
2018-Feb-13 23:28N 36°58' W 076°22'0 0.1
2018-Feb-13 22:58N 36°58' W 076°22'0 0.0
2018-Feb-13 22:28N 36°58' W 076°22'0 0.0
2018-Feb-13 21:57N 36°58' W 076°22'0 0.1
2018-Feb-13 21:26N 36°58' W 076°22'0 0.2
2018-Feb-13 21:00N 36°58' W 076°22'0 0.1
2018-Feb-13 20:29N 36°58' W 076°22'0 0.0
2018-Feb-13 19:56N 36°58' W 076°22'0 0.0
2018-Feb-13 19:26N 36°58' W 076°22'0 0.0
2018-Feb-13 19:00N 36°58' W 076°22'0 0.0
2018-Feb-13 18:30N 36°58' W 076°22'0 0.0
2018-Feb-13 18:00N 36°58' W 076°22'0 0.0
2018-Feb-13 17:29N 36°58' W 076°22'0 0.1
2018-Feb-13 16:59N 36°58' W 076°22'0 0.2
2018-Feb-13 16:28N 36°58' W 076°22'0 0.1
2018-Feb-13 15:50N 36°58' W 076°22'0 0.0
2018-Feb-13 15:30N 36°58' W 076°22'0 0.0
2018-Feb-13 14:59N 36°58' W 076°22'0 0.0
2018-Feb-13 14:29N 36°58' W 076°22'0 0.0
2018-Feb-13 13:58N 36°58' W 076°22'0 0.0
2018-Feb-13 13:28N 36°58' W 076°22'0 0.0
2018-Feb-13 12:58N 36°58' W 076°22'0 0.0
2018-Feb-13 12:22N 36°58' W 076°22'0 0.0
2018-Feb-13 11:56N 36°58' W 076°22'0 0.0
2018-Feb-13 11:26N 36°58' W 076°22'0 0.0
2018-Feb-13 11:00N 36°58' W 076°22'0 0.0
2018-Feb-13 10:30N 36°58' W 076°22'0 0.0
2018-Feb-13 10:00N 36°58' W 076°22'0 0.0
2018-Feb-13 09:29N 36°58' W 076°22'0 0.0
2018-Feb-13 08:59N 36°58' W 076°22'0 0.1
2018-Feb-13 08:28N 36°58' W 076°22'0 0.2
2018-Feb-13 08:00N 36°58' W 076°22'0 0.1
2018-Feb-13 07:25N 36°58' W 076°22'0 0.1
2018-Feb-13 06:59N 36°58' W 076°22'0 0.0
2018-Feb-13 06:28N 36°58' W 076°22'0 0.0
2018-Feb-13 05:58N 36°58' W 076°22'0 0.0
2018-Feb-13 05:29N 36°58' W 076°22'0 0.0
2018-Feb-13 04:57N 36°58' W 076°22'0 0.0
2018-Feb-13 04:26N 36°58' W 076°22'2 4.3
2018-Feb-13 03:56N 36°57' W 076°24'1 2.0
2018-Feb-13 03:30N 36°58' W 076°25'0 0.0
2018-Feb-13 03:00N 36°58' W 076°25'0 0.0
2018-Feb-13 02:30N 36°58' W 076°25'0 0.0
2018-Feb-13 01:59N 36°58' W 076°25'0 0.0
2018-Feb-13 01:29N 36°58' W 076°25'0 0.0
2018-Feb-13 00:58N 36°58' W 076°25'0 0.0
2018-Feb-13 00:28N 36°58' W 076°25'0 0.0
2018-Feb-12 23:57N 36°58' W 076°25'0 0.0
2018-Feb-12 23:27N 36°58' W 076°25'1 1.6
2018-Feb-12 22:56N 36°57' W 076°24'2 4.3
2018-Feb-12 22:26N 36°58' W 076°22'0 0.1
2018-Feb-12 22:00N 36°58' W 076°22'1 2.6
2018-Feb-12 21:30N 36°59' W 076°20'2 4.8
2018-Feb-12 21:00N 36°60' W 076°18'3 5.9
2018-Feb-12 20:29N 37°00' W 076°14'3 5.9
2018-Feb-12 19:59N 36°59' W 076°11'3 5.2
2018-Feb-12 19:28N 36°59' W 076°08'2 4.3
2018-Feb-12 19:00N 36°58' W 076°05'2 3.9
2018-Feb-12 18:30N 36°57' W 076°03'2 3.9
2018-Feb-12 17:59N 36°57' W 076°00'2 3.8
2018-Feb-12 17:30N 36°56' W 075°58'2 4.0
2018-Feb-12 17:00N 36°56' W 075°56'2 4.1
2018-Feb-12 16:30N 36°55' W 075°53'5 4.4
2018-Feb-12 15:18N 36°52' W 075°48'185 5.6
2018-Feb-11 06:26N 39°37' W 074°03'53 6.8
2018-Feb-10 22:40N 40°30' W 073°57'1 6.0
2018-Feb-10 22:29N 40°31' W 073°58'2 5.0
2018-Feb-10 22:00N 40°32' W 074°01'2 4.6
2018-Feb-10 21:30N 40°34' W 074°02'1 1.6
2018-Feb-10 21:00N 40°35' W 074°02'0 0.2
2018-Feb-10 20:30N 40°35' W 074°02'2 3.4
2018-Feb-10 20:00N 40°37' W 074°03'3 6.3
2018-Feb-10 19:30N 40°39' W 074°05'3 5.9
2018-Feb-10 19:00N 40°39' W 074°09'3 5.3
2018-Feb-10 18:29N 40°37' W 074°12'4 5.7
2018-Feb-10 17:48N 40°33' W 074°14'2 1.2
2018-Feb-10 16:27N 40°32' W 074°15'0 0.0
2018-Feb-10 14:52N 40°32' W 074°15'0 0.1
2018-Feb-10 09:29N 40°33' W 074°15'4 8.4
2018-Feb-10 09:00N 40°36' W 074°12'3 6.8
2018-Feb-10 08:29N 40°39' W 074°09'1 2.4
2018-Feb-10 08:01N 40°39' W 074°07'3 6.2
2018-Feb-10 07:30N 40°42' W 074°07'1 1.6
2018-Feb-10 07:00N 40°43' W 074°07'0 0.0
2018-Feb-10 06:30N 40°43' W 074°07'0 0.0
2018-Feb-10 06:00N 40°43' W 074°07'0 0.0
2018-Feb-10 05:30N 40°43' W 074°07'0 0.0
2018-Feb-10 05:00N 40°43' W 074°07'0 0.0
2018-Feb-10 04:30N 40°43' W 074°07'0 0.0
2018-Feb-10 04:00N 40°43' W 074°07'0 0.0
2018-Feb-10 03:30N 40°43' W 074°07'0 0.0
2018-Feb-10 03:00N 40°43' W 074°07'0 0.0
2018-Feb-10 02:31N 40°43' W 074°07'3 5.3
2018-Feb-10 02:00N 40°40' W 074°08'2 3.0
2018-Feb-10 01:30N 40°39' W 074°09'4 8.0
2018-Feb-10 00:59N 40°35' W 074°12'3 2.6
2018-Feb-09 23:39N 40°32' W 074°15'1 4.3
2018-Feb-09 23:26N 40°33' W 074°15'3 6.9
2018-Feb-09 23:00N 40°36' W 074°12'2 7.6
2018-Feb-09 22:46N 40°37' W 074°12'8 0.8
2018-Feb-09 12:30N 40°40' W 074°02'0 0.0
2018-Feb-09 07:30N 40°40' W 074°02'0 0.0
2018-Feb-09 06:30N 40°40' W 074°02'0 0.0
2018-Feb-09 05:30N 40°40' W 074°02'0 0.1
2018-Feb-09 05:00N 40°40' W 074°02'0 0.1
2018-Feb-09 04:30N 40°40' W 074°02'  
2018-Feb-06 18:53N 40°58' W 073°54'4 9.3
2018-Feb-06 18:29N 40°55' W 073°55'5 9.3
2018-Feb-06 18:00N 40°51' W 073°57'5 9.7
2018-Feb-06 17:30N 40°46' W 074°00'5 9.4
2018-Feb-06 17:00N 40°42' W 074°02'4 8.8
2018-Feb-06 16:30N 40°37' W 074°03'2 4.7
2018-Feb-06 16:00N 40°35' W 074°02'2 3.2
2018-Feb-06 15:30N 40°34' W 074°02'8 6.2
2018-Feb-06 14:18N 40°28' W 073°55'2 6.4
2018-Feb-06 13:58N 40°26' W 073°54'3 5.9
2018-Feb-06 13:30N 40°24' W 073°54'5 7.3
2018-Feb-06 12:47N 40°18' W 073°54'2 7.3
2018-Feb-06 12:29N 40°16' W 073°54'6 7.3
2018-Feb-06 11:41N 40°10' W 073°55'2 7.3
2018-Feb-06 11:28N 40°09' W 073°55'6 7.3
2018-Feb-06 10:35N 40°02' W 073°56'1 7.2
2018-Feb-06 10:30N 40°02' W 073°56'5 7.3
2018-Feb-06 09:47N 39°57' W 073°57'6 7.3
2018-Feb-06 09:00N 39°51' W 073°58'4 7.3
2018-Feb-06 08:29N 39°47' W 073°58'5 7.2
2018-Feb-06 07:50N 39°43' W 074°00'3 7.3
2018-Feb-06 07:27N 39°40' W 074°01'3 7.3
2018-Feb-06 07:00N 39°37' W 074°03'4 7.4
2018-Feb-06 06:25N 39°33' W 074°06'59 5.5
2018-Feb-05 19:46N 39°02' W 075°09'2 7.5
2018-Feb-05 19:28N 39°04' W 075°10'4 7.6
2018-Feb-05 19:00N 39°07' W 075°13'6 6.6
2018-Feb-05 18:00N 39°12' W 075°17'6 5.7
2018-Feb-05 17:00N 39°17' W 075°21'3 3.5
2018-Feb-05 16:00N 39°19' W 075°25'20 5.8
2018-Feb-05 12:30N 39°32' W 075°45'16 6.3
2018-Feb-05 09:59N 39°24' W 076°02'3 6.3
2018-Feb-05 09:30N 39°23' W 076°06'3 6.3
2018-Feb-05 09:00N 39°21' W 076°09'6 6.2
2018-Feb-05 08:06N 39°17' W 076°14'1 6.7
2018-Feb-05 07:54N 39°16' W 076°14'8 6.7
2018-Feb-05 06:42N 39°09' W 076°20'1 6.4
2018-Feb-05 06:30N 39°09' W 076°21'8 7.8
2018-Feb-05 05:29N 39°12' W 076°31'4 7.9
2018-Feb-05 05:00N 39°15' W 076°34'1 2.5
2018-Feb-05 04:28N 39°16' W 076°34'0 0.0
2018-Feb-05 03:58N 39°16' W 076°34'0 0.0
2018-Feb-05 03:28N 39°16' W 076°34'0 0.0
2018-Feb-05 02:58N 39°16' W 076°34'0 0.0
2018-Feb-05 02:28N 39°16' W 076°34'0 0.0
2018-Feb-05 01:58N 39°16' W 076°34'0 0.0
2018-Feb-05 01:28N 39°16' W 076°34'0 0.0
2018-Feb-05 00:58N 39°16' W 076°34'0 0.0
2018-Feb-05 00:28N 39°16' W 076°34'0 0.0
2018-Feb-04 23:58N 39°16' W 076°34'0 0.0
2018-Feb-04 23:28N 39°16' W 076°34'0 0.0
2018-Feb-04 22:58N 39°16' W 076°34'0 0.0
2018-Feb-04 22:28N 39°16' W 076°34'0 0.0
2018-Feb-04 21:58N 39°16' W 076°34'0 0.0
2018-Feb-04 21:28N 39°16' W 076°34'0 0.0
2018-Feb-04 20:58N 39°16' W 076°34'1 1.1
2018-Feb-04 19:59N 39°17' W 076°36'0 0.0
2018-Feb-04 19:29N 39°17' W 076°36'0 0.0
2018-Feb-04 18:56N 39°17' W 076°36'1 2.3
2018-Feb-04 18:29N 39°16' W 076°34'1 1.1
2018-Feb-04 17:59N 39°16' W 076°35'0 0.0
2018-Feb-04 17:29N 39°16' W 076°35'0 0.0
2018-Feb-04 15:29N 39°16' W 076°35'0 0.0
2018-Feb-04 14:53N 39°16' W 076°35'0 0.0
2018-Feb-04 14:29N 39°16' W 076°35'0 0.0
2018-Feb-04 13:56N 39°16' W 076°35'1 1.4
2018-Feb-04 13:31N 39°16' W 076°34'0 0.0
2018-Feb-04 12:58N 39°16' W 076°34'0 0.0
2018-Feb-04 12:28N 39°16' W 076°34'0 0.0
2018-Feb-04 11:58N 39°16' W 076°34'0 0.0
2018-Feb-04 11:28N 39°16' W 076°34'0 0.0
2018-Feb-04 09:58N 39°16' W 076°34'0 0.0
2018-Feb-04 08:58N 39°16' W 076°34'0 0.0
2018-Feb-04 08:28N 39°16' W 076°34'0 0.0
2018-Feb-04 08:01N 39°16' W 076°34'0 0.0
2018-Feb-04 07:31N 39°16' W 076°34'0 0.0
2018-Feb-04 06:58N 39°16' W 076°34'0 0.0
2018-Feb-04 06:28N 39°16' W 076°34'0 0.0
2018-Feb-04 06:01N 39°16' W 076°34'0 0.0
2018-Feb-04 05:31N 39°16' W 076°34'0 0.0
2018-Feb-04 05:01N 39°16' W 076°34'0 0.0
2018-Feb-04 04:31N 39°16' W 076°34'  

Dump ship's entire track history